Time;durP1;ratioP1;P1;durP2;ratioP2;P2;SDS_P1;SDS_P2;PMS_P1;PMS_P2;Temp;Humidity;BMP_temperature;BMP_pressure;BME280_temperature;BME280_humidity;BME280_pressure;Samples;Min_cycle;Max_cycle;Signal;HPM_P1;HPM_P2
2022/02/01 00:01:44;;;;;;;23.58;4.13;;;;;;;0.60;100.00;101997.44;5028938;28;20037;-73
2022/02/01 00:04:19;;;;;;;24.42;4.35;;;;;;;0.51;100.00;101985.66;5033870;28;20029;-73
2022/02/01 00:12:04;;;;;;;28.00;4.60;;;;;;;0.24;100.00;101997.78;5095111;28;20032;-72
2022/02/01 00:17:48;;;;;;;24.45;4.75;;;;;;;0.16;100.00;102019.78;5051164;28;20122;-72
2022/02/01 00:20:24;;;;;;;24.05;4.40;;;;;;;0.15;100.00;102016.28;5051129;28;20033;-73
2022/02/01 00:33:18;;;;;;;26.60;4.57;;;;;;;0.21;100.00;101997.59;5049858;28;20141;-73
2022/02/01 00:36:38;;;;;;;26.63;4.50;;;;;;;0.21;100.00;102013.19;5052248;28;20041;-73
2022/02/01 00:39:09;;;;;;;28.80;4.28;;;;;;;0.14;100.00;102026.59;5051401;28;20159;-73
2022/02/01 00:41:39;;;;;;;26.40;4.45;;;;;;;0.08;100.00;102034.88;5052255;28;20052;-73
2022/02/01 00:44:05;;;;;;;27.08;4.45;;;;;;;0.09;100.00;102033.22;5052309;28;20099;-73
2022/02/01 00:46:31;;;;;;;27.08;4.55;;;;;;;0.10;100.00;102033.31;5052029;28;20032;-73
2022/02/01 00:48:56;;;;;;;25.45;4.13;;;;;;;0.12;100.00;102025.59;5051991;28;20041;-73
2022/02/01 00:51:22;;;;;;;26.30;4.50;;;;;;;0.15;100.00;102020.59;5051762;28;20040;-73
2022/02/01 00:53:47;;;;;;;26.23;4.57;;;;;;;0.18;100.00;102031.19;5064054;28;20066;-73
2022/02/01 00:56:14;;;;;;;23.08;4.03;;;;;;;0.21;100.00;102026.19;5094515;28;20024;-73
2022/02/01 00:58:41;;;;;;;26.27;4.40;;;;;;;0.26;100.00;102030.00;5094270;28;20024;-73
2022/02/01 01:01:06;;;;;;;24.27;4.53;;;;;;;0.32;100.00;102025.19;5094066;28;20132;-73
2022/02/01 01:03:32;;;;;;;23.60;4.32;;;;;;;0.34;100.00;102013.19;5093838;28;20491;-73
2022/02/01 01:05:57;;;;;;;27.05;4.20;;;;;;;0.43;100.00;102009.38;5093061;28;20047;-73
2022/02/01 01:08:23;;;;;;;25.80;4.50;;;;;;;0.42;100.00;101998.03;5093760;28;20521;-72
2022/02/01 01:10:48;;;;;;;27.30;4.57;;;;;;;0.40;100.00;101998.78;5094153;28;20032;-72
2022/02/01 01:16:08;;;;;;;27.30;4.68;;;;;;;0.32;100.00;101973.16;5093926;28;20066;-73
2022/02/01 01:45:59;;;;;;;28.15;4.60;;;;;;;0.72;100.00;101987.78;5093387;28;20138;-73
2022/02/01 01:53:53;;;;;;;28.48;4.57;;;;;;;0.83;100.00;102009.28;5092977;28;20034;-73
2022/02/01 01:56:19;;;;;;;25.83;4.28;;;;;;;0.88;100.00;102009.59;5093266;28;20024;-73
2022/02/01 01:58:45;;;;;;;26.65;4.43;;;;;;;0.92;100.00;102016.75;5091623;28;20066;-71
2022/02/01 02:01:14;;;;;;;26.60;4.38;;;;;;;0.94;100.00;102022.97;5093067;28;20048;-71
2022/02/01 02:03:44;;;;;;;25.73;4.57;;;;;;;0.96;100.00;102003.13;5093142;28;20028;-72
2022/02/01 02:06:12;;;;;;;26.70;4.78;;;;;;;0.99;100.00;101991.22;5093112;28;20047;-72
2022/02/01 02:08:38;;;;;;;25.02;4.60;;;;;;;0.99;100.00;102012.06;5092808;28;20437;-72
2022/02/01 02:11:13;;;;;;;28.42;4.60;;;;;;;1.04;100.00;102023.63;5090295;28;20441;-72
2022/02/01 02:16:31;;;;;;;28.77;4.45;;;;;;;1.12;100.00;102003.28;5092552;28;20399;-72
2022/02/01 02:18:57;;;;;;;26.25;4.93;;;;;;;1.15;100.00;101980.03;5092613;28;20024;-72
2022/02/01 02:21:22;;;;;;;24.77;3.83;;;;;;;1.18;100.00;101990.63;5092746;28;20028;-72
2022/02/01 02:23:48;;;;;;;26.13;4.43;;;;;;;1.23;100.00;102001.34;5092541;28;20046;-72
2022/02/01 02:26:17;;;;;;;26.90;4.40;;;;;;;1.27;100.00;102005.94;5092584;28;20115;-71
2022/02/01 02:28:44;;;;;;;25.70;5.05;;;;;;;1.27;100.00;102000.72;5091988;28;20103;-72
2022/02/01 02:31:10;;;;;;;25.08;4.40;;;;;;;1.30;100.00;102003.50;5090515;28;20036;-72
2022/02/01 02:33:35;;;;;;;24.42;4.13;;;;;;;1.28;100.00;102005.13;5091802;28;20068;-71
2022/02/01 02:36:07;;;;;;;25.63;3.88;;;;;;;1.30;100.00;102000.91;5092689;28;20382;-71
2022/02/01 02:38:48;;;;;;;27.30;4.28;;;;;;;1.34;100.00;101992.47;5089836;28;20034;-72
2022/02/01 02:41:49;;;;;;;24.05;4.03;;;;;;;1.37;100.00;102005.66;5091871;28;20035;-72
2022/02/01 02:46:51;;;;;;;22.38;4.00;;;;;;;1.42;100.00;101998.13;5090988;28;20093;-72
2022/02/01 02:49:22;;;;;;;22.75;3.78;;;;;;;1.44;100.00;101982.56;5091451;28;20098;-72
2022/02/01 02:51:48;;;;;;;22.40;3.80;;;;;;;1.45;100.00;101972.25;5091562;28;20038;-71
2022/02/01 02:54:16;;;;;;;23.20;4.22;;;;;;;1.48;100.00;101975.03;5092322;28;20119;-72
2022/02/01 02:56:50;;;;;;;22.38;3.95;;;;;;;1.50;100.00;101983.84;5092046;28;20467;-73
2022/02/01 02:59:16;;;;;;;24.50;3.88;;;;;;;1.50;100.00;101970.81;5091371;28;20065;-72
2022/02/01 03:01:47;;;;;;;24.40;4.13;;;;;;;1.55;100.00;101971.09;5090556;28;20028;-72
2022/02/01 03:04:16;;;;;;;23.00;4.10;;;;;;;1.58;100.00;101976.47;5091542;28;20367;-72
2022/02/01 03:06:42;;;;;;;25.05;4.05;;;;;;;1.56;100.00;101981.59;5089931;28;20019;-72
2022/02/01 03:09:08;;;;;;;24.30;3.90;;;;;;;1.56;100.00;101981.59;5091343;28;20024;-72
2022/02/01 03:11:33;;;;;;;23.45;3.80;;;;;;;1.60;100.00;101984.38;5092210;28;20034;-72
2022/02/01 03:14:01;;;;;;;23.38;3.80;;;;;;;1.64;100.00;101981.16;5092156;28;20040;-72
2022/02/01 03:16:49;;;;;;;22.58;4.10;;;;;;;1.64;100.00;101976.84;5091667;28;20020;-72
2022/02/01 03:21:59;;;;;;;24.75;4.30;;;;;;;1.68;100.00;101968.38;5091432;28;20439;-72
2022/02/01 03:24:25;;;;;;;23.75;4.00;;;;;;;1.72;100.00;101946.03;5091801;28;20020;-72
2022/02/01 03:26:50;;;;;;;23.95;4.40;;;;;;;1.74;100.00;101939.16;5091267;28;20140;-72
2022/02/01 03:29:15;;;;;;;24.67;4.40;;;;;;;1.76;100.00;101934.03;5089712;28;20425;-72
2022/02/01 03:31:41;;;;;;;23.08;4.57;;;;;;;1.73;100.00;101933.06;5091817;28;20052;-73
2022/02/01 03:34:06;;;;;;;24.85;4.60;;;;;;;1.75;100.00;101927.94;5091426;28;20020;-72
2022/02/01 03:36:32;;;;;;;24.20;4.78;;;;;;;1.72;100.00;101933.88;5092019;28;20037;-72
2022/02/01 03:39:01;;;;;;;23.23;4.50;;;;;;;1.70;100.00;101918.94;5089295;28;20070;-73
2022/02/01 03:41:27;;;;;;;26.40;4.93;;;;;;;1.68;100.00;101911.03;5091251;28;20035;-73
2022/02/01 03:43:53;;;;;;;23.45;4.60;;;;;;;1.66;100.00;101904.84;5091349;28;20119;-73
2022/02/01 03:46:19;;;;;;;24.17;4.50;;;;;;;1.68;100.00;101903.22;5091189;28;20467;-73
2022/02/01 03:48:45;;;;;;;25.63;4.45;;;;;;;1.72;100.00;101906.91;5091281;28;20024;-72
2022/02/01 03:51:10;;;;;;;23.63;4.40;;;;;;;1.68;100.00;101910.16;5091164;28;20020;-73
2022/02/01 03:53:36;;;;;;;24.85;4.63;;;;;;;1.68;100.00;101889.28;5091272;28;20111;-73
2022/02/01 03:56:03;;;;;;;25.60;4.45;;;;;;;1.66;100.00;101886.59;5091240;28;20467;-72
2022/02/01 03:58:29;;;;;;;24.73;4.28;;;;;;;1.68;100.00;101873.66;5088486;28;20050;-72
2022/02/01 04:00:54;;;;;;;22.52;4.28;;;;;;;1.68;100.00;101866.72;5091343;28;20013;-72
2022/02/01 04:03:19;;;;;;;24.92;4.68;;;;;;;1.67;100.00;101872.72;5089671;28;20020;-73
2022/02/01 04:05:45;;;;;;;22.13;4.30;;;;;;;1.70;100.00;101872.94;5091387;28;20114;-72
2022/02/01 04:08:12;;;;;;;25.40;4.85;;;;;;;1.68;100.00;101882.34;5090692;28;20028;-72
2022/02/01 04:10:38;;;;;;;23.92;4.80;;;;;;;1.73;100.00;101878.31;5091034;28;20095;-72
2022/02/01 04:13:04;;;;;;;23.35;4.68;;;;;;;1.76;100.00;101871.47;5091331;28;20110;-73
2022/02/01 04:15:30;;;;;;;25.65;5.50;;;;;;;1.73;100.00;101867.88;5090489;28;20076;-72
2022/02/01 04:17:56;;;;;;;23.80;5.32;;;;;;;1.76;100.00;101861.91;5090537;28;20470;-72
2022/02/01 04:20:22;;;;;;;26.65;5.43;;;;;;;1.78;100.00;101865.53;5091064;28;20028;-72
2022/02/01 04:22:47;;;;;;;28.15;5.45;;;;;;;1.81;100.00;101870.03;5091019;28;20028;-72
2022/02/01 04:25:13;;;;;;;28.05;5.53;;;;;;;1.82;100.00;101877.00;5088796;28;20059;-72
2022/02/01 04:27:38;;;;;;;28.15;5.88;;;;;;;1.82;100.00;101877.00;5090535;28;20077;-72
2022/02/01 04:30:10;;;;;;;24.50;5.82;;;;;;;1.85;100.00;101880.72;5091085;28;20035;-72
2022/02/01 04:32:39;;;;;;;27.13;6.50;;;;;;;1.87;100.00;101871.25;5087910;28;20028;-72
2022/02/01 04:35:10;;;;;;;24.77;6.10;;;;;;;1.91;100.00;101882.78;5090956;28;20024;-72
2022/02/01 04:37:36;;;;;;;25.23;5.97;;;;;;;1.97;100.00;101861.34;5090608;28;20028;-71
2022/02/01 04:40:03;;;;;;;25.10;5.80;;;;;;;2.00;100.00;101867.63;5090652;28;20099;-72
2022/02/01 04:42:33;;;;;;;27.40;6.97;;;;;;;2.12;100.00;101861.28;5090904;28;20481;-71
2022/02/01 04:44:59;;;;;;;27.80;6.47;;;;;;;2.10;100.00;101863.81;5090597;28;20020;-71
2022/02/01 04:47:30;;;;;;;25.45;6.45;;;;;;;2.15;100.00;101856.25;5090609;28;20078;-71
2022/02/01 04:49:56;;;;;;;25.27;6.13;;;;;;;2.14;100.00;101854.44;5090777;28;20036;-71
2022/02/01 04:52:21;;;;;;;25.05;6.70;;;;;;;2.15;100.00;101861.47;5090404;28;20027;-71
2022/02/01 04:54:46;;;;;;;25.98;6.55;;;;;;;2.18;100.00;101865.13;5090647;28;20026;-71
2022/02/01 04:57:11;;;;;;;27.35;6.75;;;;;;;2.21;100.00;101867.00;5093532;28;20107;-72
2022/02/01 04:59:37;;;;;;;27.58;6.72;;;;;;;2.23;100.00;101883.66;5093894;28;20042;-71
2022/02/01 05:02:02;;;;;;;26.33;6.70;;;;;;;2.27;100.00;101859.50;5094202;28;20024;-71
2022/02/01 05:04:28;;;;;;;28.23;6.80;;;;;;;2.29;100.00;101860.50;5094022;28;20449;-72
2022/02/01 05:06:53;;;;;;;24.98;6.25;;;;;;;2.28;100.00;101849.97;5094017;28;20071;-71
2022/02/01 05:09:20;;;;;;;27.92;6.50;;;;;;;2.34;100.00;101842.47;5092553;28;20030;-72
2022/02/01 05:11:45;;;;;;;25.20;6.72;;;;;;;2.36;100.00;101846.97;5094603;28;20040;-71
2022/02/01 05:14:15;;;;;;;28.77;6.95;;;;;;;2.34;100.00;101848.59;5093766;28;20051;-72
2022/02/01 05:22:05;;;;;;;27.60;7.40;;;;;;;2.32;100.00;101812.81;5094024;28;20059;-71
2022/02/01 05:24:33;;;;;;;25.58;7.00;;;;;;;2.33;100.00;101811.97;5094023;28;20035;-71
2022/02/01 05:27:00;;;;;;;27.52;7.65;;;;;;;2.36;100.00;101807.81;5094087;28;20032;-71
2022/02/01 05:29:25;;;;;;;27.35;7.55;;;;;;;2.35;100.00;101803.41;5092064;28;20028;-72
2022/02/01 05:31:52;;;;;;;29.95;8.23;;;;;;;2.39;100.00;101805.38;5093749;28;20028;-71
2022/02/01 05:34:18;;;;;;;30.73;8.95;;;;;;;2.38;100.00;101787.91;5093581;28;20113;-71
2022/02/01 05:36:44;;;;;;;30.42;8.80;;;;;;;2.44;100.00;101777.78;5091212;28;20024;-72
2022/02/01 05:39:16;;;;;;;29.67;8.63;;;;;;;2.43;100.00;101773.41;5093139;28;20071;-71
2022/02/01 05:41:41;;;;;;;30.40;9.45;;;;;;;2.43;100.00;101764.66;5093037;28;20041;-71
2022/02/01 05:44:07;;;;;;;31.27;9.90;;;;;;;2.50;100.00;101768.50;5093792;28;20089;-71
2022/02/01 05:46:34;;;;;;;30.33;9.43;;;;;;;2.48;100.00;101772.75;5093596;28;20034;-71
2022/02/01 05:49:01;;;;;;;31.02;9.98;;;;;;;2.49;100.00;101777.13;5093060;28;20024;-70
2022/02/01 05:51:26;;;;;;;29.52;9.60;;;;;;;2.51;100.00;101776.41;5091564;28;20123;-71
2022/02/01 05:53:51;;;;;;;33.03;9.80;;;;;;;2.50;100.00;101760.66;5093095;28;20107;-70
2022/02/01 05:56:17;;;;;;;28.45;9.75;;;;;;;2.55;100.00;101743.50;5092912;28;20066;-71
2022/02/01 05:58:43;;;;;;;31.77;10.25;;;;;;;2.61;100.00;101728.19;5092721;28;20031;-71
2022/02/01 06:01:09;;;;;;;29.75;10.18;;;;;;;2.57;100.00;101737.56;5093324;28;20020;-71
2022/02/01 06:03:34;;;;;;;32.83;11.07;;;;;;;2.56;100.00;101738.41;5093177;28;20062;-71
2022/02/01 06:06:01;;;;;;;29.50;10.65;;;;;;;2.56;100.00;101733.19;5092821;28;20024;-71
2022/02/01 06:08:26;;;;;;;34.10;10.68;;;;;;;2.61;100.00;101728.19;5091894;28;20059;-71
2022/02/01 06:10:52;;;;;;;31.13;10.63;;;;;;;2.66;100.00;101724.06;5093011;28;20086;-71
2022/02/01 06:13:17;;;;;;;33.83;10.65;;;;;;;2.63;100.00;101713.47;5093115;28;20139;-71
2022/02/01 06:15:42;;;;;;;32.22;11.82;;;;;;;2.62;100.00;101709.06;5092646;28;20081;-70
2022/02/01 06:18:08;;;;;;;32.08;11.35;;;;;;;2.60;100.00;101710.72;5092045;28;20024;-71
2022/02/01 06:20:33;;;;;;;35.78;12.00;;;;;;;2.51;100.00;101705.03;5092746;28;20032;-71
2022/02/01 06:22:59;;;;;;;32.92;11.85;;;;;;;2.55;100.00;101714.78;5093107;28;20055;-71
2022/02/01 06:28:12;;;;;;;34.83;11.80;;;;;;;2.60;100.00;101692.44;5070618;28;20036;-71
2022/02/01 06:30:38;;;;;;;35.78;12.82;;;;;;;2.63;100.00;101683.88;5074082;28;20024;-71
2022/02/01 06:33:03;;;;;;;33.72;12.90;;;;;;;2.64;100.00;101696.13;5075193;28;20119;-71
2022/02/01 06:35:29;;;;;;;30.92;11.90;;;;;;;2.71;100.00;101687.75;5073076;28;20028;-68
2022/02/01 06:37:55;;;;;;;30.65;11.80;;;;;;;2.73;100.00;101687.00;5071260;28;20551;-70
2022/02/01 06:40:20;;;;;;;37.60;13.23;;;;;;;2.76;100.00;101684.53;5074671;28;20044;-72
2022/02/01 06:42:46;;;;;;;34.55;12.15;;;;;;;2.77;100.00;101678.50;5075916;28;20054;-73
2022/02/01 06:45:11;;;;;;;33.35;12.43;;;;;;;2.79;100.00;101666.41;5074527;28;20395;-73
2022/02/01 06:47:37;;;;;;;34.80;13.05;;;;;;;2.81;100.00;101676.03;5071656;28;20523;-72
2022/02/01 06:50:03;;;;;;;33.15;13.20;;;;;;;2.78;100.00;101669.88;5060749;28;20561;-70
2022/02/01 06:52:30;;;;;;;35.60;13.00;;;;;;;2.85;100.00;101672.78;5073583;28;20530;-73
2022/02/01 06:54:56;;;;;;;32.53;13.23;;;;;;;2.88;100.00;101659.84;5070023;28;20032;-73
2022/02/01 06:57:21;;;;;;;34.95;13.80;;;;;;;2.88;100.00;101659.84;5069058;28;20032;-72
2022/02/01 06:59:46;;;;;;;34.33;14.20;;;;;;;2.85;100.00;101667.53;5068608;28;20078;-74
2022/02/01 07:02:12;;;;;;;38.30;15.82;;;;;;;2.87;100.00;101671.13;5079134;28;20479;-71
2022/02/01 07:04:37;;;;;;;36.20;15.88;;;;;;;2.92;100.00;101656.56;5081961;28;20605;-72
2022/02/01 07:07:03;;;;;;;35.70;15.93;;;;;;;2.93;100.00;101669.72;5091381;28;20036;-73
2022/02/01 07:09:32;;;;;;;39.78;18.52;;;;;;;2.94;100.00;101654.94;5088113;28;20035;-74
2022/02/01 07:11:58;;;;;;;41.55;19.77;;;;;;;2.98;100.00;101649.03;5090518;28;20105;-74
2022/02/01 07:14:23;;;;;;;39.95;20.02;;;;;;;3.04;100.00;101644.09;5091491;28;20060;-72
2022/02/01 07:16:49;;;;;;;39.78;20.65;;;;;;;3.09;100.00;101655.69;5091291;28;20024;-74
2022/02/01 07:19:14;;;;;;;41.38;21.50;;;;;;;3.07;100.00;101633.81;5090987;28;20032;-73
2022/02/01 07:21:40;;;;;;;43.65;22.52;;;;;;;3.11;100.00;101634.84;5091528;28;20051;-72
2022/02/01 07:24:12;;;;;;;43.72;24.15;;;;;;;3.12;100.00;101634.91;5091354;28;20031;-74
2022/02/01 07:26:39;;;;;;;43.40;24.40;;;;;;;3.17;100.00;101644.69;5091729;28;20028;-71
2022/02/01 07:29:05;;;;;;;48.15;24.17;;;;;;;3.16;100.00;101629.81;5090786;28;20554;-70
2022/02/01 07:31:31;;;;;;;45.92;25.63;;;;;;;3.20;100.00;101630.03;5091338;28;20099;-73
2022/02/01 07:33:56;;;;;;;45.95;26.73;;;;;;;3.13;100.00;101631.47;5091684;28;20093;-73
2022/02/01 07:36:22;;;;;;;46.88;26.52;;;;;;;3.17;100.00;101631.63;5091322;28;20091;-75
2022/02/01 07:38:48;;;;;;;48.45;29.08;;;;;;;3.13;100.00;101631.47;5090794;28;20032;-75
2022/02/01 07:41:13;;;;;;;49.63;29.65;;;;;;;3.11;100.00;101627.00;5090919;28;20028;-73
2022/02/01 07:43:39;;;;;;;49.22;29.38;;;;;;;3.07;100.00;101623.38;5091528;28;20036;-73
2022/02/01 07:46:08;;;;;;;49.45;28.67;;;;;;;3.10;100.00;101620.91;5090372;28;20489;-76
2022/02/01 07:48:33;;;;;;;50.25;29.55;;;;;;;3.04;100.00;101635.38;5091072;28;20032;-72
2022/02/01 07:50:59;;;;;;;54.55;31.65;;;;;;;2.99;100.00;101626.44;5091096;28;20069;-75
2022/02/01 07:53:24;;;;;;;54.00;30.23;;;;;;;2.94;100.00;101608.81;5090583;28;20028;-73
2022/02/01 07:55:50;;;;;;;51.70;29.88;;;;;;;2.95;100.00;101600.13;5090118;28;20394;-77
2022/02/01 07:58:15;;;;;;;56.17;33.83;;;;;;;2.91;100.00;101599.94;5090560;28;20032;-75
2022/02/01 08:00:41;;;;;;;51.28;30.23;;;;;;;2.92;100.00;101596.50;5089758;28;20040;-75
2022/02/01 08:03:06;;;;;;;53.63;31.58;;;;;;;2.95;100.00;101588.81;5091489;28;20043;-73
2022/02/01 08:05:33;;;;;;;50.70;30.80;;;;;;;2.91;100.00;101579.03;5090997;28;20020;-72
2022/02/01 08:08:01;;;;;;;57.38;32.60;;;;;;;2.84;100.00;101570.03;5090739;28;20047;-74
2022/02/01 08:10:32;;;;;;;54.55;33.40;;;;;;;2.91;100.00;101581.66;5089727;28;20107;-75
2022/02/01 08:13:45;;;;;;;52.70;32.78;;;;;;;2.87;100.00;101588.47;5089419;28;20020;-73
2022/02/01 08:21:01;;;;;;;57.10;32.42;;;;;;;2.88;100.00;101560.59;5090930;28;20054;-75
2022/02/01 08:23:27;;;;;;;54.17;32.75;;;;;;;2.84;100.00;101567.41;5087355;28;20386;-73
2022/02/01 08:25:53;;;;;;;56.47;33.38;;;;;;;2.83;100.00;101572.56;5089438;28;20035;-75
2022/02/01 08:28:20;;;;;;;52.15;30.90;;;;;;;2.83;100.00;101577.78;5090476;28;20031;-75
2022/02/01 08:30:49;;;;;;;50.88;30.65;;;;;;;2.81;100.00;101574.19;5091417;28;20099;-75
2022/02/01 08:33:14;;;;;;;52.13;31.90;;;;;;;2.78;100.00;101573.25;5094694;28;20102;-77
2022/02/01 08:35:40;;;;;;;50.13;31.08;;;;;;;2.84;100.00;101575.25;5094690;28;20111;-78
2022/02/01 08:38:05;;;;;;;50.08;30.67;;;;;;;2.82;100.00;101561.22;5094334;28;20048;-77
2022/02/01 08:40:30;;;;;;;44.08;27.85;;;;;;;2.82;100.00;101579.50;5094555;28;20025;-76
2022/02/01 08:42:55;;;;;;;48.72;29.25;;;;;;;2.84;100.00;101558.66;5094444;28;20017;-77
2022/02/01 08:45:25;;;;;;;48.25;28.55;;;;;;;2.81;100.00;101568.97;5094447;28;20471;-77
2022/02/01 08:47:53;;;;;;;49.25;30.35;;;;;;;2.81;100.00;101569.91;5094058;28;20031;-71
2022/02/01 08:50:23;;;;;;;48.80;31.10;;;;;;;2.85;100.00;101558.75;5094416;28;20103;-74
2022/02/01 08:52:50;;;;;;;47.22;28.42;;;;;;;2.88;100.00;101544.94;5094549;28;20596;-73
2022/02/01 08:55:38;;;;;;;47.80;29.27;;;;;;;2.90;100.00;101538.97;5091149;28;20031;-73
2022/02/01 08:58:05;;;;;;;48.30;31.60;;;;;;;2.93;100.00;101533.00;5093709;28;20028;-74
2022/02/01 09:00:31;;;;;;;50.17;31.40;;;;;;;2.94;100.00;101524.31;5094374;28;20705;-74
2022/02/01 09:02:58;;;;;;;49.25;31.58;;;;;;;2.95;100.00;101521.78;5094152;28;20409;-74
2022/02/01 09:05:24;;;;;;;48.63;30.52;;;;;;;2.97;100.00;101509.69;5094303;28;20044;-73
2022/02/01 09:07:50;;;;;;;46.45;27.75;;;;;;;2.98;100.00;101492.28;5093685;28;20024;-75
2022/02/01 09:10:15;;;;;;;49.83;30.95;;;;;;;2.99;100.00;101477.53;5094606;28;20473;-73
2022/02/01 09:12:41;;;;;;;48.90;29.38;;;;;;;3.03;100.00;101471.59;5094668;28;20036;-73
2022/02/01 09:15:06;;;;;;;50.10;30.10;;;;;;;3.06;100.00;101467.44;5093881;28;20059;-75
2022/02/01 09:17:31;;;;;;;50.28;31.98;;;;;;;3.08;100.00;101468.38;5094029;28;20051;-72
2022/02/01 09:19:58;;;;;;;52.40;32.20;;;;;;;3.12;100.00;101461.59;5092976;28;20032;-70
2022/02/01 09:22:24;;;;;;;51.97;31.60;;;;;;;3.12;100.00;101452.00;5093826;28;20028;-69
2022/02/01 09:24:49;;;;;;;50.40;31.85;;;;;;;3.19;100.00;101462.72;5093898;28;20031;-70
2022/02/01 09:27:15;;;;;;;51.40;31.33;;;;;;;3.22;100.00;101447.19;5093720;28;20024;-72
2022/02/01 09:29:40;;;;;;;50.40;31.38;;;;;;;3.25;100.00;101442.13;5093503;28;20398;-72
2022/02/01 09:32:06;;;;;;;51.88;31.38;;;;;;;3.26;100.00;101446.50;5093417;28;20028;-71
2022/02/01 09:34:32;;;;;;;52.25;31.20;;;;;;;3.29;100.00;101449.25;5092488;28;20032;-71
2022/02/01 09:36:58;;;;;;;53.60;33.63;;;;;;;3.34;100.00;101441.63;5093799;28;20031;-71
2022/02/01 09:39:25;;;;;;;50.67;29.27;;;;;;;3.35;100.00;101423.41;5093826;28;20483;-71
2022/02/01 09:41:51;;;;;;;50.13;29.58;;;;;;;3.40;100.00;101415.75;5090756;28;20081;-71
2022/02/01 09:44:17;;;;;;;48.97;30.50;;;;;;;3.43;100.00;101406.28;5093139;28;20020;-74
2022/02/01 09:46:49;;;;;;;51.03;33.20;;;;;;;3.45;100.00;101388.97;5093265;28;20024;-70
2022/02/01 09:49:16;;;;;;;52.20;31.33;;;;;;;3.46;100.00;101377.66;5091949;28;20028;-74
2022/02/01 09:51:43;;;;;;;53.05;32.28;;;;;;;3.49;100.00;101377.81;5118796;27;20024;-72
2022/02/01 09:54:09;;;;;;;53.88;33.05;;;;;;;3.52;100.00;101360.47;5092846;28;20024;-72
2022/02/01 09:56:35;;;;;;;52.17;30.17;;;;;;;3.56;100.00;101344.09;5093164;28;20043;-73
2022/02/01 09:59:00;;;;;;;50.22;31.92;;;;;;;3.58;100.00;101342.41;5092701;28;20016;-74
2022/02/01 10:01:29;;;;;;;48.35;29.90;;;;;;;3.64;100.00;101347.88;5093203;28;20024;-73
2022/02/01 10:04:02;;;;;;;50.47;30.95;;;;;;;3.66;100.00;101347.13;5092709;28;20405;-73
2022/02/01 10:06:32;;;;;;;50.30;30.20;;;;;;;3.72;100.00;101350.81;5092894;28;20043;-73
2022/02/01 10:09:11;;;;;;;49.22;30.25;;;;;;;3.78;100.00;101346.72;5090969;28;20475;-72
2022/02/01 10:11:40;;;;;;;50.72;30.92;;;;;;;3.78;100.00;101343.22;5093063;28;20056;-73
2022/02/01 10:14:08;;;;;;;49.70;30.77;;;;;;;3.80;100.00;101324.16;5091842;28;20067;-73
2022/02/01 10:16:47;;;;;;;49.22;30.15;;;;;;;3.81;100.00;101348.56;5092231;28;20032;-73
2022/02/01 10:19:13;;;;;;;50.40;29.70;;;;;;;3.83;100.00;101342.56;5088093;28;20088;-72
2022/02/01 10:21:59;;;;;;;52.10;29.70;;;;;;;3.85;100.00;101342.63;5092411;28;20024;-73
2022/02/01 10:24:33;;;;;;;50.38;32.42;;;;;;;3.91;100.00;101329.78;5091414;28;20103;-73
2022/02/01 10:27:15;;;;;;;49.78;29.70;;;;;;;3.97;100.00;101332.63;5092260;28;20062;-74
2022/02/01 10:30:09;;;;;;;53.15;31.02;;;;;;;4.02;100.00;101332.84;5092347;28;20394;-74
2022/02/01 10:32:55;;;;;;;56.60;33.20;;;;;;;4.03;100.00;101334.59;5092894;28;20493;-73
2022/02/01 10:38:18;;;;;;;59.08;34.45;;;;;;;4.12;100.00;101331.44;5091958;28;20089;-71
2022/02/01 10:40:45;;;;;;;58.55;34.50;;;;;;;4.17;100.00;101341.25;5090479;28;20557;-72
2022/02/01 10:43:16;;;;;;;65.93;38.30;;;;;;;4.28;100.00;101327.69;5088714;28;20077;-71
2022/02/01 10:45:43;;;;;;;63.60;35.17;;;;;;;4.32;100.00;101330.47;5090016;28;20028;-72
2022/02/01 10:48:23;;;;;;;62.72;38.30;;;;;;;4.39;100.00;101321.13;5091625;28;20024;-73
2022/02/01 10:51:08;;;;;;;64.93;40.15;;;;;;;4.46;100.00;101315.31;5090688;28;20020;-72
2022/02/01 10:53:38;;;;;;;65.38;37.20;;;;;;;4.52;100.00;101298.94;5085225;28;20036;-73
2022/02/01 10:56:07;;;;;;;64.28;38.08;;;;;;;4.54;100.00;101305.09;5089491;28;20020;-72
2022/02/01 10:58:34;;;;;;;65.20;37.10;;;;;;;4.59;100.00;101300.03;5088747;28;20463;-73
2022/02/01 11:01:01;;;;;;;66.90;39.78;;;;;;;4.63;100.00;101283.59;5090119;28;20109;-73
2022/02/01 11:03:28;;;;;;;63.65;41.00;;;;;;;4.69;100.00;101274.22;5089543;28;20032;-75
2022/02/01 11:05:55;;;;;;;65.25;39.00;;;;;;;4.74;100.00;101279.63;5091898;28;20028;-76
2022/02/01 11:08:27;;;;;;;62.78;37.67;;;;;;;4.78;100.00;101278.91;5091096;28;20028;-74
2022/02/01 11:10:55;;;;;;;64.50;38.17;;;;;;;4.83;100.00;101276.44;5091994;28;20073;-74
2022/02/01 11:13:21;;;;;;;70.03;37.22;;;;;;;4.91;100.00;101271.44;5092098;28;20366;-76
2022/02/01 11:15:59;;;;;;;70.03;38.75;;;;;;;4.98;100.00;101269.13;5091792;28;20048;-76
2022/02/01 11:18:26;;;;;;;62.00;34.58;;;;;;;5.04;100.00;101261.44;5091321;28;20514;-73
2022/02/01 11:21:13;;;;;;;58.92;31.70;;;;;;;5.10;100.00;101266.00;5091534;28;20024;-74
2022/02/01 11:23:47;;;;;;;57.00;33.38;;;;;;;5.17;100.00;101249.66;5090349;28;20081;-75
2022/02/01 11:26:30;;;;;;;54.65;32.25;;;;;;;5.22;100.00;101249.78;5090985;28;20032;-75
2022/02/01 11:31:47;;;;;;;49.17;27.50;;;;;;;5.29;100.00;101245.66;5091330;28;20103;-75
2022/02/01 11:34:19;;;;;;;50.53;27.67;;;;;;;5.31;100.00;101233.47;5091288;28;20031;-74
2022/02/01 11:36:45;;;;;;;47.20;25.08;;;;;;;5.33;100.00;101252.75;5089685;28;20471;-74
2022/02/01 11:39:13;;;;;;;44.03;24.73;;;;;;;5.38;100.00;101249.44;5090655;28;20424;-75
2022/02/01 11:41:41;;;;;;;42.35;23.90;;;;;;;5.40;100.00;101259.97;5091375;28;20117;-77
2022/02/01 11:44:20;;;;;;;41.78;22.05;;;;;;;5.46;100.00;101240.94;5091150;28;20048;-74
2022/02/01 11:47:08;;;;;;;42.08;22.48;;;;;;;5.56;100.00;101243.91;5091057;28;20032;-75
2022/02/01 11:49:35;;;;;;;38.95;20.92;;;;;;;5.53;100.00;101235.94;5008085;28;20038;-74
2022/02/01 11:52:20;;;;;;;38.80;20.17;;;;;;;5.61;100.00;101241.41;5007041;28;20176;-76
2022/02/01 11:54:50;;;;;;;38.35;18.85;;;;;;;5.63;100.00;101246.72;4992639;28;20438;-74
2022/02/01 11:57:18;;;;;;;36.90;17.60;;;;;;;5.62;100.00;101216.06;5009182;28;20056;-76
2022/02/01 12:00:09;;;;;;;35.00;16.65;;;;;;;5.67;100.00;101225.84;5008694;28;20156;-75
2022/02/01 12:02:41;;;;;;;35.50;17.17;;;;;;;5.70;100.00;101225.94;4993021;28;20109;-75
2022/02/01 12:05:12;;;;;;;34.88;16.63;;;;;;;5.71;100.00;101219.00;5009293;28;20026;-76
2022/02/01 12:08:05;;;;;;;34.03;16.08;;;;;;;5.75;100.00;101213.88;5012164;28;20042;-73
2022/02/01 12:10:41;;;;;;;34.10;15.52;;;;;;;5.82;100.00;101212.31;5013438;28;20491;-74
2022/02/01 12:13:08;;;;;;;35.22;16.38;;;;;;;5.84;100.00;101209.72;4996553;28;20045;-76
2022/02/01 12:15:37;;;;;;;33.10;17.08;;;;;;;5.91;100.00;101212.59;5012811;28;20599;-77
2022/02/01 12:18:20;;;;;;;35.17;17.45;;;;;;;5.90;100.00;101202.06;5012723;28;20038;-75
2022/02/01 12:21:06;;;;;;;36.17;18.73;;;;;;;5.94;100.00;101214.41;5012785;28;20046;-77
2022/02/01 12:23:33;;;;;;;39.92;19.65;;;;;;;5.93;100.00;101210.88;5013290;28;20026;-75
2022/02/01 12:25:58;;;;;;;37.60;17.15;;;;;;;5.96;100.00;101202.22;5033648;28;20039;-74
2022/02/01 12:28:30;;;;;;;38.28;18.08;;;;;;;6.01;100.00;101218.13;5094679;28;20032;-76
2022/02/01 12:31:11;;;;;;;40.35;19.25;;;;;;;6.02;100.00;101199.81;5095049;28;20031;-74
2022/02/01 12:33:47;;;;;;;37.30;17.83;;;;;;;6.06;100.00;101180.69;5093817;28;20024;-76
2022/02/01 12:36:18;;;;;;;40.53;21.23;;;;;;;6.13;100.00;101180.84;5094316;28;20020;-77
2022/02/01 12:38:48;;;;;;;40.15;18.85;;;;;;;6.16;100.00;101173.97;5087967;28;20036;-70
2022/02/01 12:41:19;;;;;;;41.05;18.63;;;;;;;6.15;100.00;101164.28;5094167;28;20066;-73